Time;durP1;ratioP1;P1;durP2;ratioP2;P2;SDS_P1;SDS_P2;PMS_P1;PMS_P2;Temp;Humidity;BMP_temperature;BMP_pressure;BME280_temperature;BME280_humidity;BME280_pressure;Samples;Min_cycle;Max_cycle;Signal;HPM_P1;HPM_P2
2022/05/05 00:02:13;;;;;;;6.90;2.40;;;9.10;99.90;;;;;;4976627;28;20026;-86
2022/05/05 00:04:39;;;;;;;3.65;1.90;;;9.10;99.90;;;;;;4976157;28;20033;-86
2022/05/05 00:07:21;;;;;;;3.35;1.58;;;9.00;99.90;;;;;;4976138;28;20042;-86
2022/05/05 00:09:47;;;;;;;7.15;2.00;;;9.00;99.90;;;;;;4976295;28;20045;-86
2022/05/05 00:14:57;;;;;;;5.90;1.58;;;8.90;99.90;;;;;;4993396;28;20033;-85
2022/05/05 00:17:23;;;;;;;5.78;1.85;;;9.00;99.90;;;;;;4975743;28;20023;-86
2022/05/05 00:19:49;;;;;;;4.57;1.70;;;8.90;99.90;;;;;;4993360;28;20036;-86
2022/05/05 00:22:15;;;;;;;11.57;2.40;;;8.90;99.90;;;;;;4993217;28;20592;-85
2022/05/05 00:24:40;;;;;;;4.40;2.05;;;8.90;99.90;;;;;;4993184;28;20068;-85
2022/05/05 00:27:07;;;;;;;5.47;1.88;;;8.90;99.90;;;;;;4975805;28;20492;-85
2022/05/05 00:29:33;;;;;;;4.85;2.15;;;8.90;99.90;;;;;;4975678;28;20095;-88
2022/05/05 00:31:58;;;;;;;3.95;2.17;;;8.90;99.90;;;;;;4993675;28;20027;-85
2022/05/05 00:34:24;;;;;;;3.40;1.83;;;8.90;99.90;;;;;;4975685;28;20391;-85
2022/05/05 00:36:50;;;;;;;6.80;2.53;;;8.90;99.90;;;;;;4975440;28;20031;-85
2022/05/05 00:39:16;;;;;;;4.97;2.20;;;8.80;99.90;;;;;;4975793;28;20034;-85
2022/05/05 00:41:46;;;;;;;4.45;2.03;;;8.90;99.90;;;;;;4975779;28;20031;-85
2022/05/05 00:44:13;;;;;;;5.30;1.90;;;8.80;99.90;;;;;;4975609;28;20038;-85
2022/05/05 00:46:39;;;;;;;7.75;2.50;;;8.80;99.90;;;;;;4975413;28;20397;-85
2022/05/05 00:49:05;;;;;;;4.18;1.90;;;8.80;99.90;;;;;;4972023;28;20051;-85
2022/05/05 00:51:31;;;;;;;8.68;2.05;;;8.80;99.90;;;;;;4971620;28;20527;-85
2022/05/05 00:53:57;;;;;;;7.97;2.10;;;8.80;99.90;;;;;;4956655;28;20167;-85
2022/05/05 00:56:24;;;;;;;7.43;2.08;;;8.90;99.90;;;;;;4971900;28;20046;-85
2022/05/05 00:58:53;;;;;;;5.25;1.98;;;8.90;99.90;;;;;;4972146;28;20043;-85
2022/05/05 01:01:20;;;;;;;2.60;1.77;;;8.80;99.90;;;;;;4972137;28;20023;-85
2022/05/05 01:03:46;;;;;;;5.55;1.95;;;8.80;99.90;;;;;;4972281;28;20051;-85
2022/05/05 01:06:15;;;;;;;4.85;1.90;;;8.80;99.90;;;;;;4971699;28;20051;-85
2022/05/05 01:08:42;;;;;;;4.13;2.65;;;8.80;99.90;;;;;;4972020;28;20117;-86
2022/05/05 01:11:08;;;;;;;6.75;2.33;;;8.70;99.90;;;;;;4971888;28;20045;-87
2022/05/05 01:13:37;;;;;;;3.65;2.00;;;8.80;99.90;;;;;;4971784;28;20110;-86
2022/05/05 01:16:05;;;;;;;3.22;1.70;;;8.70;99.90;;;;;;4972150;28;20559;-85
2022/05/05 01:18:30;;;;;;;4.80;1.95;;;8.70;99.90;;;;;;4971733;28;20039;-86
2022/05/05 01:20:56;;;;;;;4.47;1.65;;;8.70;99.90;;;;;;4956055;28;20027;-86
2022/05/05 01:23:22;;;;;;;3.63;2.17;;;8.70;99.90;;;;;;4973166;28;20043;-86
2022/05/05 01:28:39;;;;;;;4.20;1.73;;;8.70;99.90;;;;;;4973394;28;20046;-86
2022/05/05 01:31:05;;;;;;;2.15;1.90;;;8.70;99.90;;;;;;4972050;28;20365;-86
2022/05/05 01:33:30;;;;;;;5.20;2.40;;;8.70;99.90;;;;;;4971705;28;20030;-86
2022/05/05 01:35:57;;;;;;;8.00;2.03;;;8.70;99.90;;;;;;4972063;28;20027;-85
2022/05/05 01:38:26;;;;;;;3.95;1.90;;;8.70;99.90;;;;;;4971883;28;20065;-86
2022/05/05 01:40:51;;;;;;;4.30;2.45;;;8.70;99.90;;;;;;4971973;28;20050;-86
2022/05/05 01:43:19;;;;;;;7.30;2.42;;;8.70;99.90;;;;;;4972034;28;20027;-87
2022/05/05 01:45:46;;;;;;;2.85;1.80;;;8.70;99.90;;;;;;4972162;28;20126;-86
2022/05/05 01:48:12;;;;;;;4.57;1.80;;;8.70;99.90;;;;;;4971805;28;20051;-86
2022/05/05 01:50:38;;;;;;;4.25;1.77;;;8.80;99.90;;;;;;4972688;28;20117;-86
2022/05/05 01:53:04;;;;;;;6.93;2.33;;;8.80;99.90;;;;;;4971926;28;20027;-86
2022/05/05 01:55:31;;;;;;;4.72;2.33;;;8.90;99.90;;;;;;4972155;28;20027;-86
2022/05/05 01:58:00;;;;;;;7.55;2.05;;;8.90;99.90;;;;;;4971556;28;20074;-86
2022/05/05 02:00:26;;;;;;;5.70;2.03;;;9.00;99.90;;;;;;4972219;28;20027;-86
2022/05/05 02:02:52;;;;;;;9.23;2.60;;;9.00;99.90;;;;;;4973272;28;20500;-86
2022/05/05 02:05:18;;;;;;;4.68;2.10;;;9.00;99.90;;;;;;4975402;28;20019;-86
2022/05/05 02:10:14;;;;;;;7.82;2.10;;;9.00;99.90;;;;;;4943937;28;20504;-87
2022/05/05 02:12:39;;;;;;;9.95;2.45;;;9.00;99.90;;;;;;4975571;28;20097;-87
2022/05/05 02:15:07;;;;;;;4.18;2.20;;;9.00;99.90;;;;;;4981863;28;20574;-86
2022/05/05 02:17:34;;;;;;;9.90;3.17;;;9.00;99.90;;;;;;4981446;28;20027;-87
2022/05/05 02:20:00;;;;;;;4.68;2.22;;;9.00;99.90;;;;;;4976467;28;20034;-87
2022/05/05 02:22:27;;;;;;;5.88;2.42;;;9.00;99.90;;;;;;4977173;28;20019;-87
2022/05/05 02:24:53;;;;;;;2.97;1.98;;;8.90;99.90;;;;;;4975565;28;20042;-86
2022/05/05 02:27:19;;;;;;;3.58;1.95;;;8.90;99.90;;;;;;4975319;28;20031;-86
2022/05/05 02:29:46;;;;;;;5.47;2.20;;;8.90;99.90;;;;;;4975510;28;20468;-87
2022/05/05 02:32:12;;;;;;;13.27;3.78;;;8.80;99.90;;;;;;4975576;28;20034;-87
2022/05/05 02:34:38;;;;;;;7.05;2.72;;;8.80;99.90;;;;;;4975177;28;20070;-86
2022/05/05 02:39:49;;;;;;;6.47;2.50;;;8.70;99.90;;;;;;4976544;28;20118;-86
2022/05/05 02:42:16;;;;;;;6.20;2.33;;;8.70;99.90;;;;;;4975132;28;20058;-87
2022/05/05 02:44:43;;;;;;;5.57;2.67;;;8.60;99.90;;;;;;4980754;28;20034;-86
2022/05/05 02:47:09;;;;;;;5.45;2.67;;;8.60;99.90;;;;;;4981072;28;20019;-86
2022/05/05 02:49:35;;;;;;;7.78;2.72;;;8.60;99.90;;;;;;4997003;28;20057;-87
2022/05/05 02:52:04;;;;;;;3.15;2.30;;;8.60;99.90;;;;;;4984366;28;20105;-86
2022/05/05 02:54:50;;;;;;;6.47;2.70;;;8.60;99.90;;;;;;4989858;28;20388;-86
2022/05/05 02:57:17;;;;;;;7.40;2.72;;;8.60;99.90;;;;;;4983959;28;20073;-87
2022/05/05 02:59:43;;;;;;;4.25;2.30;;;8.60;99.90;;;;;;4979791;28;20027;-87
2022/05/05 03:02:09;;;;;;;5.10;2.38;;;8.60;99.90;;;;;;4978718;28;20034;-86
2022/05/05 03:04:37;;;;;;;4.38;2.40;;;8.60;99.90;;;;;;4978428;28;20081;-87
2022/05/05 03:07:03;;;;;;;6.72;2.40;;;8.50;99.90;;;;;;4978339;28;20062;-88
2022/05/05 03:09:29;;;;;;;7.95;2.47;;;8.50;99.90;;;;;;4977462;28;20092;-85
2022/05/05 03:11:54;;;;;;;5.45;2.30;;;8.50;99.90;;;;;;4977930;28;20090;-87
2022/05/05 03:14:20;;;;;;;5.28;2.20;;;8.50;99.90;;;;;;4977447;28;20050;-86
2022/05/05 03:16:46;;;;;;;4.82;2.17;;;8.40;99.90;;;;;;4977783;28;20034;-87
2022/05/05 03:19:11;;;;;;;8.10;3.20;;;8.40;99.90;;;;;;4978073;28;20365;-86
2022/05/05 03:21:37;;;;;;;10.73;2.90;;;8.40;99.90;;;;;;4977723;28;20034;-86
2022/05/05 03:24:04;;;;;;;4.63;2.63;;;8.40;99.90;;;;;;4978088;28;20503;-87
2022/05/05 03:26:30;;;;;;;5.53;2.72;;;8.40;99.90;;;;;;4978001;28;20555;-86
2022/05/05 03:28:56;;;;;;;3.15;2.42;;;8.30;99.90;;;;;;4977878;28;20022;-86
2022/05/05 03:31:22;;;;;;;5.50;2.28;;;8.30;99.90;;;;;;4977680;28;20034;-86
2022/05/05 03:33:48;;;;;;;7.47;2.33;;;8.30;99.90;;;;;;4995454;28;20100;-86
2022/05/05 03:36:14;;;;;;;6.25;2.55;;;8.30;99.90;;;;;;4977823;28;20022;-87
2022/05/05 03:38:39;;;;;;;5.05;2.20;;;8.30;99.90;;;;;;4977770;28;20040;-87
2022/05/05 03:41:06;;;;;;;6.75;2.92;;;8.30;99.90;;;;;;4977844;28;20402;-86
2022/05/05 03:43:33;;;;;;;6.10;2.78;;;8.30;99.90;;;;;;4979696;28;20093;-85
2022/05/05 03:45:59;;;;;;;4.63;2.33;;;8.30;99.90;;;;;;5001113;28;20495;-86
2022/05/05 03:48:25;;;;;;;2.80;1.73;;;8.30;99.90;;;;;;4982378;28;20042;-86
2022/05/05 03:50:50;;;;;;;7.18;2.17;;;8.30;99.90;;;;;;4977483;28;20049;-85
2022/05/05 03:53:16;;;;;;;7.13;2.67;;;8.30;99.90;;;;;;4976914;28;20125;-86
2022/05/05 03:55:42;;;;;;;4.07;2.17;;;8.30;99.90;;;;;;4976740;28;20114;-85
2022/05/05 03:58:07;;;;;;;3.25;1.50;;;8.20;99.90;;;;;;4978238;28;20093;-86
2022/05/05 04:00:33;;;;;;;6.10;2.03;;;8.20;99.90;;;;;;5005187;28;20026;-85
2022/05/05 04:05:43;;;;;;;4.32;2.22;;;8.30;99.90;;;;;;5016143;28;20037;-86
2022/05/05 04:08:09;;;;;;;10.65;3.90;;;8.40;99.90;;;;;;5005985;28;20026;-86
2022/05/05 04:10:35;;;;;;;3.72;2.00;;;8.40;99.90;;;;;;4996662;28;20045;-86
2022/05/05 04:13:00;;;;;;;4.88;2.10;;;8.50;99.90;;;;;;4993186;28;20333;-86
2022/05/05 04:15:26;;;;;;;3.80;2.03;;;8.50;99.90;;;;;;4994236;28;20065;-86
2022/05/05 04:17:52;;;;;;;5.85;2.00;;;8.50;99.90;;;;;;4976695;28;20039;-85
2022/05/05 04:20:18;;;;;;;6.57;2.28;;;8.60;99.90;;;;;;4994085;28;20354;-85
2022/05/05 04:22:44;;;;;;;5.25;2.10;;;8.50;99.90;;;;;;4994146;28;20026;-86
2022/05/05 04:25:12;;;;;;;5.15;2.03;;;8.60;99.90;;;;;;4993348;28;20029;-87
2022/05/05 04:27:39;;;;;;;4.07;1.90;;;8.60;99.90;;;;;;4993877;28;20058;-86
2022/05/05 04:30:09;;;;;;;6.15;2.60;;;8.60;99.90;;;;;;4993462;28;20038;-86
2022/05/05 04:32:35;;;;;;;3.55;1.75;;;8.60;99.90;;;;;;4975447;28;20128;-87
2022/05/05 04:35:01;;;;;;;4.15;1.95;;;8.60;99.90;;;;;;4992616;28;20034;-85
2022/05/05 04:37:28;;;;;;;3.92;2.10;;;8.60;99.90;;;;;;4993963;28;20030;-85
2022/05/05 04:39:53;;;;;;;7.82;2.22;;;8.60;99.90;;;;;;4976529;28;20113;-85
2022/05/05 04:42:19;;;;;;;2.83;2.10;;;8.70;99.90;;;;;;4993603;28;20060;-86
2022/05/05 04:44:45;;;;;;;4.53;2.40;;;8.70;99.90;;;;;;4976288;28;20054;-84
2022/05/05 04:47:10;;;;;;;6.88;2.85;;;8.70;99.90;;;;;;4993631;28;20092;-85
2022/05/05 04:49:40;;;;;;;3.78;2.15;;;8.60;99.90;;;;;;4994931;28;20053;-86
2022/05/05 04:52:06;;;;;;;4.88;2.50;;;8.70;99.90;;;;;;4995798;28;20025;-86
2022/05/05 04:54:35;;;;;;;4.50;2.65;;;8.60;99.90;;;;;;4995745;28;20533;-86
2022/05/05 04:57:00;;;;;;;3.97;2.30;;;8.60;99.90;;;;;;4995419;28;20476;-86
2022/05/05 04:59:27;;;;;;;5.18;2.70;;;8.60;99.90;;;;;;4995458;28;20034;-86
2022/05/05 05:01:53;;;;;;;11.00;2.63;;;8.60;99.90;;;;;;4995391;28;20096;-86
2022/05/05 05:04:19;;;;;;;4.45;2.10;;;8.60;99.90;;;;;;4995669;28;20037;-86
2022/05/05 05:06:44;;;;;;;4.32;2.58;;;8.60;99.90;;;;;;4995847;28;20022;-86
2022/05/05 05:09:10;;;;;;;6.47;2.90;;;8.60;99.90;;;;;;4996304;28;20422;-86
2022/05/05 05:11:36;;;;;;;5.93;2.58;;;8.60;99.90;;;;;;4998541;28;20022;-86
2022/05/05 05:14:02;;;;;;;6.40;2.90;;;8.70;99.90;;;;;;5001327;28;20034;-86
2022/05/05 05:16:27;;;;;;;4.95;1.90;;;8.70;99.90;;;;;;5018480;28;20026;-86
2022/05/05 05:18:54;;;;;;;15.20;3.70;;;8.70;99.90;;;;;;5000944;28;20068;-86
2022/05/05 05:21:20;;;;;;;4.50;2.10;;;8.70;99.90;;;;;;4998635;28;20029;-86
2022/05/05 05:23:46;;;;;;;4.20;2.35;;;8.70;99.90;;;;;;4997073;28;20487;-86
2022/05/05 05:26:13;;;;;;;2.95;1.77;;;8.70;99.90;;;;;;5015133;28;20033;-86
2022/05/05 05:28:39;;;;;;;2.88;2.40;;;8.80;99.90;;;;;;4997274;28;20060;-85
2022/05/05 05:31:05;;;;;;;6.50;2.08;;;8.70;99.90;;;;;;5003219;28;20022;-86
2022/05/05 05:33:31;;;;;;;3.67;2.25;;;8.80;99.90;;;;;;5004151;28;20030;-86
2022/05/05 05:35:56;;;;;;;5.63;2.70;;;8.70;99.90;;;;;;5004235;28;20037;-86
2022/05/05 05:38:22;;;;;;;6.45;2.08;;;8.70;99.90;;;;;;5011436;28;20428;-86
2022/05/05 05:40:48;;;;;;;5.18;2.30;;;8.70;99.90;;;;;;5014861;28;20033;-86
2022/05/05 05:43:14;;;;;;;6.20;2.35;;;8.80;99.90;;;;;;5006201;28;20029;-86
2022/05/05 05:45:40;;;;;;;6.18;2.92;;;8.80;99.90;;;;;;5001257;28;20037;-87
2022/05/05 05:48:06;;;;;;;3.63;2.00;;;8.80;99.90;;;;;;4996701;28;20038;-87
2022/05/05 05:50:32;;;;;;;3.20;2.40;;;8.80;99.90;;;;;;4994926;28;20431;-85
2022/05/05 05:52:59;;;;;;;3.70;2.20;;;8.80;99.90;;;;;;4995999;28;20417;-87
2022/05/05 05:55:25;;;;;;;5.68;2.78;;;8.90;99.90;;;;;;4987638;28;20438;-86
2022/05/05 05:57:51;;;;;;;4.95;2.92;;;8.90;99.90;;;;;;5006491;28;20387;-86
2022/05/05 06:00:17;;;;;;;4.82;2.65;;;8.90;99.90;;;;;;5006247;28;20022;-86
2022/05/05 06:05:27;;;;;;;4.60;3.33;;;8.90;99.90;;;;;;5006376;28;20041;-87
2022/05/05 06:08:00;;;;;;;6.00;3.13;;;8.90;99.90;;;;;;4988869;28;20038;-86
2022/05/05 06:10:26;;;;;;;6.68;4.03;;;9.00;99.90;;;;;;4987748;28;20097;-87
2022/05/05 06:12:53;;;;;;;8.07;4.15;;;9.00;99.90;;;;;;5014768;28;20504;-85
2022/05/05 06:15:19;;;;;;;6.20;3.80;;;9.00;99.90;;;;;;4994156;28;20022;-86
2022/05/05 06:17:44;;;;;;;7.78;4.50;;;9.10;99.90;;;;;;5009931;28;20052;-86
2022/05/05 06:20:11;;;;;;;6.00;3.97;;;9.10;99.90;;;;;;4996769;28;20018;-86
2022/05/05 06:22:37;;;;;;;9.82;4.60;;;9.20;99.90;;;;;;5004994;28;20032;-87
2022/05/05 06:25:04;;;;;;;9.68;5.03;;;9.30;99.90;;;;;;4987124;28;20026;-87
2022/05/05 06:27:30;;;;;;;9.60;3.72;;;9.40;99.90;;;;;;4985637;28;20030;-87
2022/05/05 06:29:56;;;;;;;8.40;3.90;;;9.40;99.90;;;;;;4996153;28;20111;-88
2022/05/05 06:32:21;;;;;;;7.55;4.10;;;9.50;99.90;;;;;;5005270;28;20034;-87
2022/05/05 06:34:47;;;;;;;7.15;4.15;;;9.60;99.90;;;;;;4991374;28;20516;-86
2022/05/05 06:37:13;;;;;;;7.45;4.35;;;9.70;99.90;;;;;;4983531;28;20035;-86
2022/05/05 06:39:39;;;;;;;8.27;3.60;;;9.80;99.90;;;;;;4992251;28;20369;-88
2022/05/05 06:42:05;;;;;;;6.38;3.17;;;9.90;99.90;;;;;;4987301;28;20026;-86
2022/05/05 06:44:31;;;;;;;6.10;3.72;;;10.00;99.90;;;;;;5005647;28;20030;-87
2022/05/05 06:46:58;;;;;;;7.88;3.70;;;10.00;99.90;;;;;;4987989;28;20387;-87
2022/05/05 06:49:24;;;;;;;6.53;3.22;;;10.10;99.90;;;;;;4984998;28;20042;-87
2022/05/05 06:51:50;;;;;;;8.68;3.78;;;10.30;99.90;;;;;;4985852;28;20176;-86
2022/05/05 06:54:16;;;;;;;6.10;3.40;;;10.30;99.90;;;;;;5004577;28;20046;-86
2022/05/05 06:56:42;;;;;;;8.38;3.10;;;10.50;99.90;;;;;;4989273;28;20026;-87
2022/05/05 06:59:07;;;;;;;8.20;3.47;;;10.50;99.90;;;;;;4998324;28;20462;-86
2022/05/05 07:01:52;;;;;;;8.45;3.47;;;10.60;99.90;;;;;;4994295;28;20026;-86
2022/05/05 07:07:06;;;;;;;4.43;3.38;;;10.80;99.90;;;;;;5005587;28;20025;-86
2022/05/05 07:12:18;;;;;;;7.60;3.55;;;11.00;99.90;;;;;;4995615;28;20750;-86
2022/05/05 07:14:44;;;;;;;7.90;3.50;;;11.00;99.90;;;;;;4977810;28;20030;-86
2022/05/05 07:17:10;;;;;;;5.65;3.28;;;11.10;99.90;;;;;;4991000;28;20169;-86
2022/05/05 07:19:36;;;;;;;5.10;2.78;;;11.20;99.90;;;;;;4997108;28;20042;-87
2022/05/05 07:22:03;;;;;;;5.40;3.08;;;11.30;99.90;;;;;;4998472;28;20048;-86
2022/05/05 07:24:32;;;;;;;4.60;3.33;;;11.30;99.90;;;;;;4998607;28;20022;-84
2022/05/05 07:26:58;;;;;;;5.35;3.15;;;11.40;99.90;;;;;;4995763;28;20195;-88
2022/05/05 07:29:24;;;;;;;9.27;3.30;;;11.50;99.90;;;;;;4988686;28;20038;-86
2022/05/05 07:31:50;;;;;;;6.20;3.33;;;11.60;99.90;;;;;;4996753;28;20027;-86
2022/05/05 07:34:18;;;;;;;5.18;3.17;;;11.60;99.90;;;;;;5002384;28;20117;-86
2022/05/05 07:36:44;;;;;;;9.48;3.70;;;11.70;99.90;;;;;;4996649;28;20025;-87
2022/05/05 07:39:10;;;;;;;6.40;3.42;;;11.90;99.90;;;;;;4984759;28;20019;-87
2022/05/05 07:41:35;;;;;;;7.20;2.75;;;12.00;99.90;;;;;;4988821;28;20041;-86
2022/05/05 07:44:01;;;;;;;4.43;2.67;;;12.10;99.90;;;;;;5014131;28;20079;-87
2022/05/05 07:46:30;;;;;;;4.47;2.35;;;12.10;99.90;;;;;;4984556;28;20385;-87
2022/05/05 07:48:56;;;;;;;7.82;3.55;;;12.20;99.90;;;;;;4996587;28;20043;-87
2022/05/05 07:51:21;;;;;;;8.52;3.35;;;12.30;99.90;;;;;;4981458;28;20488;-87
2022/05/05 07:54:34;;;;;;;8.65;3.50;;;12.30;99.90;;;;;;4983215;28;20033;-87
2022/05/05 07:56:33;;;;;;;6.13;3.42;;;12.40;99.90;;;;;;4994885;28;20030;-86
2022/05/05 07:58:59;;;;;;;6.85;3.00;;;12.50;99.90;;;;;;4990273;28;20041;-87
2022/05/05 08:01:25;;;;;;;6.18;3.15;;;12.60;99.90;;;;;;4988090;28;20084;-86
2022/05/05 08:03:51;;;;;;;5.82;3.05;;;12.60;99.90;;;;;;4988458;28;20022;-87
2022/05/05 08:06:16;;;;;;;5.47;2.80;;;12.80;99.90;;;;;;4990003;28;20026;-87
2022/05/05 08:08:42;;;;;;;8.50;3.20;;;12.80;99.90;;;;;;5005347;28;20022;-86
2022/05/05 08:11:08;;;;;;;3.90;2.85;;;12.90;99.90;;;;;;5003754;28;20026;-88
2022/05/05 08:13:33;;;;;;;4.32;2.45;;;13.00;99.90;;;;;;4988354;28;20021;-88
2022/05/05 08:15:59;;;;;;;5.30;2.70;;;13.10;99.90;;;;;;4995404;28;20030;-88
2022/05/05 08:18:25;;;;;;;4.95;2.78;;;13.20;99.90;;;;;;4994670;28;20038;-88
2022/05/05 08:20:51;;;;;;;5.95;2.70;;;13.30;99.90;;;;;;4995596;28;20439;-88
2022/05/05 08:23:17;;;;;;;4.78;3.00;;;13.40;99.90;;;;;;4995736;28;20025;-88
2022/05/05 08:28:30;;;;;;;2.97;2.50;;;13.60;99.90;;;;;;5014103;28;20096;-88
2022/05/05 08:30:58;;;;;;;5.05;3.00;;;13.70;99.90;;;;;;5013973;28;20029;-88
2022/05/05 08:33:27;;;;;;;6.50;3.63;;;13.80;99.90;;;;;;4996528;28;20057;-89
2022/05/05 08:35:56;;;;;;;7.28;3.45;;;14.00;99.90;;;;;;5013122;28;20022;-88
2022/05/05 08:38:22;;;;;;;7.50;3.50;;;14.10;99.90;;;;;;4995416;28;20046;-89
2022/05/05 08:40:48;;;;;;;4.70;3.50;;;14.20;99.90;;;;;;5013137;28;20491;-88
2022/05/05 08:43:14;;;;;;;5.85;3.05;;;14.20;99.90;;;;;;4995207;28;20018;-89
2022/05/05 08:45:40;;;;;;;7.80;3.33;;;14.30;99.90;;;;;;5013660;28;20501;-87
2022/05/05 08:48:11;;;;;;;4.75;2.53;;;14.30;99.90;;;;;;5013299;28;20080;-88
2022/05/05 08:50:39;;;;;;;6.22;3.08;;;14.40;99.90;;;;;;5013424;28;20030;-89
2022/05/05 08:53:07;;;;;;;4.25;2.58;;;14.50;99.90;;;;;;4996053;28;20037;-87
2022/05/05 08:55:34;;;;;;;4.05;2.85;;;14.70;99.90;;;;;;4997444;28;20025;-87
2022/05/05 08:58:01;;;;;;;5.72;3.38;;;14.80;99.90;;;;;;4997341;28;20124;-88
2022/05/05 09:00:29;;;;;;;7.03;3.30;;;14.90;99.90;;;;;;4992264;28;20062;-88
2022/05/05 09:02:56;;;;;;;3.92;2.42;;;15.00;99.90;;;;;;4995982;28;20026;-89
2022/05/05 09:05:43;;;;;;;6.82;3.00;;;15.20;99.90;;;;;;4994519;28;20525;-90
2022/05/05 09:08:30;;;;;;;5.50;2.67;;;15.30;99.90;;;;;;4995852;28;20030;-89
2022/05/05 09:11:18;;;;;;;8.20;3.33;;;15.40;99.90;;;;;;4991501;28;20022;-90
2022/05/05 09:13:43;;;;;;;9.57;2.70;;;15.60;99.90;;;;;;5006708;28;20068;-89
2022/05/05 09:16:10;;;;;;;4.47;2.72;;;15.80;99.90;;;;;;5011978;28;20038;-90
2022/05/05 09:18:39;;;;;;;5.15;2.78;;;16.00;99.90;;;;;;5009892;28;20034;-90
2022/05/05 09:21:06;;;;;;;6.82;3.22;;;16.10;99.90;;;;;;4989644;28;20026;-89
2022/05/05 09:26:25;;;;;;;5.25;2.90;;;16.20;99.90;;;;;;5009044;28;20849;-90
2022/05/05 09:28:51;;;;;;;4.15;3.13;;;16.20;99.90;;;;;;4997367;28;20034;-90
2022/05/05 09:31:17;;;;;;;4.32;2.70;;;16.20;99.90;;;;;;4980743;28;20030;-89
2022/05/05 09:33:44;;;;;;;6.97;2.92;;;16.20;99.90;;;;;;4998965;28;20029;-89
2022/05/05 09:36:11;;;;;;;4.95;2.85;;;16.40;99.90;;;;;;5000558;28;20095;-90
2022/05/05 09:38:51;;;;;;;5.72;2.50;;;16.40;99.90;;;;;;4988306;28;20465;-89
2022/05/05 09:41:20;;;;;;;7.43;3.17;;;16.70;99.90;;;;;;4991882;28;20026;-90
2022/05/05 09:43:46;;;;;;;9.05;3.63;;;16.90;99.60;;;;;;4974756;28;20022;-90
2022/05/05 09:46:25;;;;;;;6.07;2.70;;;16.90;98.40;;;;;;4992767;28;20030;-89
2022/05/05 09:49:04;;;;;;;4.75;2.95;;;17.00;97.80;;;;;;4975661;28;20048;-88
2022/05/05 09:51:29;;;;;;;8.10;2.60;;;17.00;97.40;;;;;;4975944;28;20050;-90
2022/05/05 09:59:39;;;;;;;4.95;2.85;;;17.10;95.60;;;;;;5000141;28;20589;-90
2022/05/05 10:02:15;;;;;;;3.97;2.92;;;17.10;95.60;;;;;;4983426;28;20583;-90
2022/05/05 10:04:49;;;;;;;7.60;2.85;;;17.30;95.30;;;;;;4993203;28;20041;-88
2022/05/05 10:07:19;;;;;;;4.45;2.97;;;17.50;95.10;;;;;;5006070;28;20996;-89
2022/05/05 10:09:47;;;;;;;6.10;3.20;;;17.70;94.50;;;;;;4991177;28;20264;-90
2022/05/05 10:12:14;;;;;;;11.82;3.80;;;17.80;93.60;;;;;;4994558;28;20022;-89
2022/05/05 10:14:41;;;;;;;9.02;3.30;;;17.90;93.10;;;;;;4992972;28;20109;-90
2022/05/05 10:17:07;;;;;;;6.65;3.17;;;17.90;92.50;;;;;;4995158;28;20069;-90
2022/05/05 10:19:34;;;;;;;6.68;3.67;;;18.00;92.10;;;;;;4994484;28;20069;-90
2022/05/05 10:22:11;;;;;;;6.75;3.60;;;18.10;91.70;;;;;;4995286;28;20030;-89
2022/05/05 10:25:09;;;;;;;9.50;3.17;;;18.20;91.40;;;;;;4992390;28;20081;-89
2022/05/05 10:27:44;;;;;;;8.60;3.10;;;18.30;91.30;;;;;;4991936;28;20040;-89
2022/05/05 10:30:15;;;;;;;7.15;3.22;;;18.30;90.40;;;;;;4996113;28;20023;-91
2022/05/05 10:32:41;;;;;;;4.22;2.75;;;18.20;90.00;;;;;;4994896;28;20085;-92
2022/05/05 10:35:21;;;;;;;5.57;3.25;;;18.00;89.30;;;;;;4998180;28;20022;-90
2022/05/05 10:37:47;;;;;;;5.63;3.03;;;17.80;89.80;;;;;;4993567;28;20026;-89
2022/05/05 10:40:12;;;;;;;5.22;3.33;;;17.60;90.00;;;;;;4989463;28;20030;-91
2022/05/05 10:42:40;;;;;;;7.35;2.90;;;17.60;90.30;;;;;;4979078;28;20493;-90
2022/05/05 10:45:16;;;;;;;8.02;3.15;;;17.50;90.30;;;;;;4978871;28;20109;-90
2022/05/05 10:48:01;;;;;;;7.03;3.03;;;17.40;90.20;;;;;;4979559;28;20088;-89
2022/05/05 10:50:43;;;;;;;5.10;2.50;;;17.40;90.40;;;;;;5002669;28;20084;-90
2022/05/05 10:53:25;;;;;;;8.10;2.97;;;17.40;90.60;;;;;;4994454;28;20033;-90
2022/05/05 10:55:51;;;;;;;5.57;2.50;;;17.40;90.70;;;;;;4992056;28;20050;-91
2022/05/05 10:58:54;;;;;;;6.70;3.50;;;17.30;90.80;;;;;;4995073;28;20038;-90
2022/05/05 11:01:20;;;;;;;5.63;3.20;;;17.30;90.90;;;;;;4996657;28;20023;-89
2022/05/05 11:04:05;;;;;;;6.82;3.33;;;17.30;90.90;;;;;;4994940;28;20403;-89
2022/05/05 11:06:32;;;;;;;6.65;2.80;;;17.50;91.10;;;;;;4993866;28;20049;-89
2022/05/05 11:08:58;;;;;;;7.07;2.95;;;17.50;91.10;;;;;;4997339;28;20617;-89
2022/05/05 11:11:42;;;;;;;6.45;2.65;;;17.50;90.80;;;;;;4998141;28;20067;-90
2022/05/05 11:23:00;;;;;;;6.68;2.90;;;17.80;88.90;;;;;;5015136;28;20140;-90
2022/05/05 11:25:27;;;;;;;6.15;3.00;;;17.70;88.60;;;;;;4997520;28;20129;-88
2022/05/05 11:27:56;;;;;;;9.43;3.05;;;17.70;88.60;;;;;;4996967;28;20018;-89
2022/05/05 11:30:22;;;;;;;4.28;2.70;;;17.80;88.70;;;;;;5014978;28;20034;-89
2022/05/05 11:32:48;;;;;;;7.50;3.03;;;17.90;88.80;;;;;;4997078;28;20081;-89
2022/05/05 11:35:21;;;;;;;5.47;2.80;;;17.90;88.40;;;;;;5014812;28;20038;-89
2022/05/05 11:37:47;;;;;;;4.90;2.47;;;17.90;88.20;;;;;;5015364;28;20030;-90
2022/05/05 11:40:13;;;;;;;6.40;3.30;;;18.00;88.30;;;;;;4998268;28;20036;-90
2022/05/05 11:45:31;;;;;;;6.53;2.53;;;18.30;88.40;;;;;;5016244;28;20029;-89
2022/05/05 11:47:57;;;;;;;3.33;1.77;;;18.60;87.60;;;;;;4998137;28;20117;-89
2022/05/05 11:50:23;;;;;;;6.47;3.00;;;18.90;86.30;;;;;;4998093;28;20065;-91
2022/05/05 11:52:49;;;;;;;8.23;2.70;;;19.10;85.50;;;;;;4994745;28;20038;-90
2022/05/05 11:55:21;;;;;;;7.07;2.97;;;19.10;84.40;;;;;;4997417;28;20052;-90
2022/05/05 11:57:49;;;;;;;6.35;3.10;;;19.00;83.80;;;;;;4996073;28;20038;-89
2022/05/05 12:03:00;;;;;;;8.65;2.97;;;19.00;83.10;;;;;;5014165;28;20075;-90
2022/05/05 12:05:28;;;;;;;6.07;2.95;;;19.00;83.10;;;;;;4998097;28;20120;-90
2022/05/05 12:07:55;;;;;;;4.97;2.28;;;19.00;82.90;;;;;;4998676;28;20026;-90
2022/05/05 12:10:24;;;;;;;11.05;3.47;;;18.90;82.70;;;;;;4996700;28;20499;-89
2022/05/05 12:12:51;;;;;;;5.47;3.00;;;18.80;82.70;;;;;;5013927;28;20030;-89
2022/05/05 12:15:20;;;;;;;5.45;2.67;;;18.60;82.70;;;;;;4996637;28;20065;-89
2022/05/05 12:17:47;;;;;;;5.80;2.85;;;18.50;83.00;;;;;;4996069;28;20101;-90
2022/05/05 12:20:21;;;;;;;6.15;3.10;;;18.40;83.20;;;;;;4987896;28;20773;-89
2022/05/05 12:22:58;;;;;;;5.32;2.85;;;18.30;83.60;;;;;;4996364;28;20041;-90
2022/05/05 12:25:25;;;;;;;6.22;2.58;;;18.40;84.00;;;;;;4996765;28;20041;-90
2022/05/05 12:28:00;;;;;;;5.82;2.80;;;18.60;83.70;;;;;;4997362;28;20040;-90
2022/05/05 12:30:43;;;;;;;6.20;3.08;;;18.70;83.50;;;;;;4996570;28;20018;-91
2022/05/05 12:33:15;;;;;;;5.68;3.03;;;18.90;83.20;;;;;;4997101;28;20087;-89
2022/05/05 12:35:43;;;;;;;5.90;3.28;;;19.10;82.50;;;;;;4993905;28;20471;-89
2022/05/05 12:38:12;;;;;;;8.90;4.03;;;19.50;82.10;;;;;;4991000;28;20045;-91
2022/05/05 12:40:43;;;;;;;5.95;2.63;;;19.60;81.00;;;;;;4994804;28;20109;-91
2022/05/05 12:43:20;;;;;;;6.20;3.20;;;19.60;80.00;;;;;;4997577;28;20030;-91
2022/05/05 12:45:48;;;;;;;5.28;2.90;;;19.60;79.70;;;;;;4994161;28;20197;-91
2022/05/05 12:48:14;;;;;;;8.00;2.95;;;19.60;79.80;;;;;;4994728;28;20054;-91
2022/05/05 12:50:46;;;;;;;7.80;2.88;;;19.50;79.70;;;;;;4993654;28;20019;-91
2022/05/05 13:01:45;;;;;;;6.00;2.90;;;19.60;79.00;;;;;;5010289;28;20092;-92
2022/05/05 13:04:14;;;;;;;6.05;2.78;;;19.50;79.00;;;;;;4994654;28;20025;-91
2022/05/05 13:06:41;;;;;;;7.40;3.17;;;19.50;79.40;;;;;;4997715;28;20077;-92
2022/05/05 13:09:09;;;;;;;6.38;3.38;;;19.40;79.70;;;;;;5000799;28;20032;-91
2022/05/05 13:11:39;;;;;;;8.25;2.78;;;19.40;80.40;;;;;;5004165;28;20022;-91
2022/05/05 13:14:05;;;;;;;5.55;3.13;;;19.50;81.00;;;;;;4998202;28;20026;-92
2022/05/05 13:16:32;;;;;;;6.05;3.00;;;19.60;81.10;;;;;;4997563;28;20037;-93
2022/05/05 13:18:59;;;;;;;4.60;2.83;;;19.80;80.80;;;;;;4997084;28;20034;-92
2022/05/05 13:21:27;;;;;;;8.60;3.03;;;19.80;80.10;;;;;;4992018;28;20387;-89
2022/05/05 13:23:53;;;;;;;6.68;3.03;;;19.70;79.60;;;;;;4992316;28;20108;-90
2022/05/05 13:26:18;;;;;;;6.88;2.60;;;19.60;79.10;;;;;;4984984;28;20018;-91
2022/05/05 13:28:44;;;;;;;7.70;2.80;;;19.60;79.30;;;;;;4989525;28;20033;-91
2022/05/05 13:31:10;;;;;;;5.05;2.33;;;19.60;78.60;;;;;;4985413;28;20030;-91
2022/05/05 13:33:36;;;;;;;4.70;2.40;;;19.70;78.40;;;;;;4984039;28;20093;-91
2022/05/05 13:36:01;;;;;;;5.57;2.92;;;19.90;77.50;;;;;;4985214;28;20400;-91
2022/05/05 13:38:28;;;;;;;6.07;2.33;;;20.00;76.50;;;;;;4985662;28;20390;-92
2022/05/05 13:40:56;;;;;;;4.18;2.08;;;20.10;76.20;;;;;;4987572;28;20034;-91
2022/05/05 13:43:22;;;;;;;6.15;2.88;;;20.30;75.60;;;;;;4980167;28;20038;-89
2022/05/05 13:45:48;;;;;;;7.97;2.83;;;20.50;75.20;;;;;;4977398;28;20114;-91
2022/05/05 13:48:14;;;;;;;7.00;2.80;;;20.50;74.30;;;;;;4977718;28;20080;-90
2022/05/05 13:50:42;;;;;;;4.30;2.10;;;20.60;73.90;;;;;;4978191;28;20552;-91
2022/05/05 13:53:07;;;;;;;6.80;2.45;;;20.70;73.80;;;;;;4976853;28;20088;-90